sensor_id;sensor_type;location;lat;lon;timestamp;temperature;humidity
24618;DHT22;12762;51.730;5.356;2023-04-01T00:00:09;11.00;90.80
24618;DHT22;12762;51.730;5.356;2023-04-01T00:02:39;11.00;90.90
24618;DHT22;12762;51.730;5.356;2023-04-01T00:05:07;11.00;90.90
24618;DHT22;12762;51.730;5.356;2023-04-01T00:07:34;11.00;90.90
24618;DHT22;12762;51.730;5.356;2023-04-01T00:10:01;11.00;90.90
24618;DHT22;12762;51.730;5.356;2023-04-01T00:12:28;11.00;90.80
24618;DHT22;12762;51.730;5.356;2023-04-01T00:14:55;11.00;90.90
24618;DHT22;12762;51.730;5.356;2023-04-01T00:17:22;11.00;90.90
24618;DHT22;12762;51.730;5.356;2023-04-01T00:19:53;11.00;90.90
24618;DHT22;12762;51.730;5.356;2023-04-01T00:22:20;11.10;91.00
24618;DHT22;12762;51.730;5.356;2023-04-01T00:24:47;11.10;91.00
24618;DHT22;12762;51.730;5.356;2023-04-01T00:27:15;11.10;91.00
24618;DHT22;12762;51.730;5.356;2023-04-01T00:29:46;11.00;90.90
24618;DHT22;12762;51.730;5.356;2023-04-01T00:32:14;11.00;91.00
24618;DHT22;12762;51.730;5.356;2023-04-01T00:34:41;11.10;91.00
24618;DHT22;12762;51.730;5.356;2023-04-01T00:37:08;11.10;91.00
24618;DHT22;12762;51.730;5.356;2023-04-01T00:39:36;11.00;91.00
24618;DHT22;12762;51.730;5.356;2023-04-01T00:42:03;11.10;91.10
24618;DHT22;12762;51.730;5.356;2023-04-01T00:44:32;11.10;91.10
24618;DHT22;12762;51.730;5.356;2023-04-01T00:47:01;11.10;91.10
24618;DHT22;12762;51.730;5.356;2023-04-01T00:49:34;11.10;91.10
24618;DHT22;12762;51.730;5.356;2023-04-01T00:52:04;11.10;91.10
24618;DHT22;12762;51.730;5.356;2023-04-01T00:54:34;11.10;91.20
24618;DHT22;12762;51.730;5.356;2023-04-01T00:57:07;11.10;91.20
24618;DHT22;12762;51.730;5.356;2023-04-01T00:59:44;11.10;91.20
24618;DHT22;12762;51.730;5.356;2023-04-01T01:02:16;11.10;91.20
24618;DHT22;12762;51.730;5.356;2023-04-01T01:04:44;11.10;91.20
24618;DHT22;12762;51.730;5.356;2023-04-01T01:10:23;11.10;91.20
24618;DHT22;12762;51.730;5.356;2023-04-01T01:13:17;11.10;91.10
24618;DHT22;12762;51.730;5.356;2023-04-01T01:16:06;11.10;91.20
24618;DHT22;12762;51.730;5.356;2023-04-01T01:18:49;11.10;91.20
24618;DHT22;12762;51.730;5.356;2023-04-01T01:24:58;11.10;91.20
24618;DHT22;12762;51.730;5.356;2023-04-01T01:27:34;11.10;91.20
24618;DHT22;12762;51.730;5.356;2023-04-01T01:35:50;11.10;91.20
24618;DHT22;12762;51.730;5.356;2023-04-01T01:38:26;11.00;91.20
24618;DHT22;12762;51.730;5.356;2023-04-01T01:40:55;11.00;91.20
24618;DHT22;12762;51.730;5.356;2023-04-01T01:43:33;11.00;91.20
24618;DHT22;12762;51.730;5.356;2023-04-01T01:46:07;11.00;91.30
24618;DHT22;12762;51.730;5.356;2023-04-01T01:48:36;11.00;91.20
24618;DHT22;12762;51.730;5.356;2023-04-01T01:51:05;11.00;91.30
24618;DHT22;12762;51.730;5.356;2023-04-01T01:53:35;10.90;91.30
24618;DHT22;12762;51.730;5.356;2023-04-01T01:56:03;10.90;91.30
24618;DHT22;12762;51.730;5.356;2023-04-01T01:58:32;10.90;91.30
24618;DHT22;12762;51.730;5.356;2023-04-01T02:01:10;10.90;91.30
24618;DHT22;12762;51.730;5.356;2023-04-01T02:03:39;10.80;91.30
24618;DHT22;12762;51.730;5.356;2023-04-01T02:06:09;10.90;91.40
24618;DHT22;12762;51.730;5.356;2023-04-01T02:08:44;10.90;91.80
24618;DHT22;12762;51.730;5.356;2023-04-01T02:11:14;10.90;91.40
24618;DHT22;12762;51.730;5.356;2023-04-01T02:13:50;10.80;91.40
24618;DHT22;12762;51.730;5.356;2023-04-01T02:18:55;10.80;91.40
24618;DHT22;12762;51.730;5.356;2023-04-01T02:21:24;10.80;91.40
24618;DHT22;12762;51.730;5.356;2023-04-01T02:23:53;10.80;91.50
24618;DHT22;12762;51.730;5.356;2023-04-01T02:26:21;10.70;91.50
24618;DHT22;12762;51.730;5.356;2023-04-01T02:28:49;10.70;91.50
24618;DHT22;12762;51.730;5.356;2023-04-01T02:31:17;10.70;91.50
24618;DHT22;12762;51.730;5.356;2023-04-01T02:33:45;10.70;91.50
24618;DHT22;12762;51.730;5.356;2023-04-01T02:36:13;10.70;91.60
24618;DHT22;12762;51.730;5.356;2023-04-01T02:38:42;10.60;91.50
24618;DHT22;12762;51.730;5.356;2023-04-01T02:41:11;10.70;91.60
24618;DHT22;12762;51.730;5.356;2023-04-01T02:43:38;10.60;91.60
24618;DHT22;12762;51.730;5.356;2023-04-01T02:46:05;10.60;91.60
24618;DHT22;12762;51.730;5.356;2023-04-01T02:48:32;10.60;91.60
24618;DHT22;12762;51.730;5.356;2023-04-01T02:50:59;10.60;91.70
24618;DHT22;12762;51.730;5.356;2023-04-01T02:53:25;10.60;91.60
24618;DHT22;12762;51.730;5.356;2023-04-01T02:55:52;10.60;91.70
24618;DHT22;12762;51.730;5.356;2023-04-01T02:58:19;10.60;91.70
24618;DHT22;12762;51.730;5.356;2023-04-01T03:00:46;10.60;91.70
24618;DHT22;12762;51.730;5.356;2023-04-01T03:03:13;10.60;91.70
24618;DHT22;12762;51.730;5.356;2023-04-01T03:05:40;10.60;91.70
24618;DHT22;12762;51.730;5.356;2023-04-01T03:08:07;10.50;91.70
24618;DHT22;12762;51.730;5.356;2023-04-01T03:10:37;10.50;91.70
24618;DHT22;12762;51.730;5.356;2023-04-01T03:13:06;10.50;91.70
24618;DHT22;12762;51.730;5.356;2023-04-01T03:15:33;10.50;91.70
24618;DHT22;12762;51.730;5.356;2023-04-01T03:18:00;10.50;91.70
24618;DHT22;12762;51.730;5.356;2023-04-01T03:20:29;10.50;91.80
24618;DHT22;12762;51.730;5.356;2023-04-01T03:22:56;10.50;91.80
24618;DHT22;12762;51.730;5.356;2023-04-01T03:25:23;10.50;91.80
24618;DHT22;12762;51.730;5.356;2023-04-01T03:27:50;10.50;91.80
24618;DHT22;12762;51.730;5.356;2023-04-01T03:30:17;10.50;91.80
24618;DHT22;12762;51.730;5.356;2023-04-01T03:32:44;10.40;91.80
24618;DHT22;12762;51.730;5.356;2023-04-01T03:35:10;10.50;91.80
24618;DHT22;12762;51.730;5.356;2023-04-01T03:37:38;10.40;91.80
24618;DHT22;12762;51.730;5.356;2023-04-01T03:40:05;10.40;91.80
24618;DHT22;12762;51.730;5.356;2023-04-01T03:42:32;10.40;91.80
24618;DHT22;12762;51.730;5.356;2023-04-01T03:44:59;10.40;91.90
24618;DHT22;12762;51.730;5.356;2023-04-01T03:47:26;10.40;91.90
24618;DHT22;12762;51.730;5.356;2023-04-01T03:49:53;10.40;91.90
24618;DHT22;12762;51.730;5.356;2023-04-01T03:52:20;10.40;91.90
24618;DHT22;12762;51.730;5.356;2023-04-01T03:54:47;10.40;91.90
24618;DHT22;12762;51.730;5.356;2023-04-01T03:57:13;10.40;91.90
24618;DHT22;12762;51.730;5.356;2023-04-01T03:59:40;10.40;91.90
24618;DHT22;12762;51.730;5.356;2023-04-01T04:02:07;10.40;92.00
24618;DHT22;12762;51.730;5.356;2023-04-01T04:04:34;10.40;92.00
24618;DHT22;12762;51.730;5.356;2023-04-01T04:07:01;10.40;92.00
24618;DHT22;12762;51.730;5.356;2023-04-01T04:09:31;10.30;92.00
24618;DHT22;12762;51.730;5.356;2023-04-01T04:11:59;10.30;92.00
24618;DHT22;12762;51.730;5.356;2023-04-01T04:14:26;10.30;92.00
24618;DHT22;12762;51.730;5.356;2023-04-01T04:16:52;10.30;92.00
24618;DHT22;12762;51.730;5.356;2023-04-01T04:19:19;10.30;92.00
24618;DHT22;12762;51.730;5.356;2023-04-01T04:21:46;10.30;92.00
24618;DHT22;12762;51.730;5.356;2023-04-01T04:24:13;10.30;92.10
24618;DHT22;12762;51.730;5.356;2023-04-01T04:26:40;10.20;92.00
24618;DHT22;12762;51.730;5.356;2023-04-01T04:29:07;10.20;92.10
24618;DHT22;12762;51.730;5.356;2023-04-01T04:31:34;10.20;92.10
24618;DHT22;12762;51.730;5.356;2023-04-01T04:34:01;10.20;92.10
24618;DHT22;12762;51.730;5.356;2023-04-01T04:36:28;10.30;92.10
24618;DHT22;12762;51.730;5.356;2023-04-01T04:38:54;10.20;92.10
24618;DHT22;12762;51.730;5.356;2023-04-01T04:41:21;10.20;92.10
24618;DHT22;12762;51.730;5.356;2023-04-01T04:43:54;10.20;92.10
24618;DHT22;12762;51.730;5.356;2023-04-01T04:46:22;10.20;92.10
24618;DHT22;12762;51.730;5.356;2023-04-01T04:48:48;10.20;92.20
24618;DHT22;12762;51.730;5.356;2023-04-01T04:51:20;10.30;92.20
24618;DHT22;12762;51.730;5.356;2023-04-01T04:53:48;10.20;92.20
24618;DHT22;12762;51.730;5.356;2023-04-01T04:56:22;10.20;92.20
24618;DHT22;12762;51.730;5.356;2023-04-01T04:58:49;10.20;92.20
24618;DHT22;12762;51.730;5.356;2023-04-01T05:01:16;10.30;92.30
24618;DHT22;12762;51.730;5.356;2023-04-01T05:03:44;10.30;92.30
24618;DHT22;12762;51.730;5.356;2023-04-01T05:06:15;10.30;92.30
24618;DHT22;12762;51.730;5.356;2023-04-01T05:08:43;10.30;92.30
24618;DHT22;12762;51.730;5.356;2023-04-01T05:11:16;10.30;92.30
24618;DHT22;12762;51.730;5.356;2023-04-01T05:13:43;10.30;92.30
24618;DHT22;12762;51.730;5.356;2023-04-01T05:16:13;10.30;92.30
24618;DHT22;12762;51.730;5.356;2023-04-01T05:18:43;10.30;92.40
24618;DHT22;12762;51.730;5.356;2023-04-01T05:21:11;10.40;92.80
24618;DHT22;12762;51.730;5.356;2023-04-01T05:23:39;10.40;92.40
24618;DHT22;12762;51.730;5.356;2023-04-01T05:26:08;10.40;92.40
24618;DHT22;12762;51.730;5.356;2023-04-01T05:28:35;10.40;92.50
24618;DHT22;12762;51.730;5.356;2023-04-01T05:31:04;10.40;92.50
24618;DHT22;12762;51.730;5.356;2023-04-01T05:33:31;10.40;92.50
24618;DHT22;12762;51.730;5.356;2023-04-01T05:36:10;10.40;92.50
24618;DHT22;12762;51.730;5.356;2023-04-01T05:38:37;10.50;92.50
24618;DHT22;12762;51.730;5.356;2023-04-01T05:41:07;10.50;92.50
24618;DHT22;12762;51.730;5.356;2023-04-01T05:43:39;10.50;92.60
24618;DHT22;12762;51.730;5.356;2023-04-01T05:46:06;10.50;92.60
24618;DHT22;12762;51.730;5.356;2023-04-01T05:48:34;10.50;92.60
24618;DHT22;12762;51.730;5.356;2023-04-01T05:51:11;10.60;92.60
24618;DHT22;12762;51.730;5.356;2023-04-01T05:53:38;10.60;92.60
24618;DHT22;12762;51.730;5.356;2023-04-01T05:56:05;10.60;92.60
24618;DHT22;12762;51.730;5.356;2023-04-01T05:58:32;10.60;92.60
24618;DHT22;12762;51.730;5.356;2023-04-01T06:01:04;10.60;92.60
24618;DHT22;12762;51.730;5.356;2023-04-01T06:03:38;10.60;92.70
24618;DHT22;12762;51.730;5.356;2023-04-01T06:06:09;10.60;92.60
24618;DHT22;12762;51.730;5.356;2023-04-01T06:08:38;10.70;92.70
24618;DHT22;12762;51.730;5.356;2023-04-01T06:11:41;10.70;92.70
24618;DHT22;12762;51.730;5.356;2023-04-01T06:28:00;10.70;92.70
24618;DHT22;12762;51.730;5.356;2023-04-01T06:30:47;10.80;92.70
24618;DHT22;12762;51.730;5.356;2023-04-01T06:33:29;10.80;92.70
24618;DHT22;12762;51.730;5.356;2023-04-01T06:47:23;10.80;92.70
24618;DHT22;12762;51.730;5.356;2023-04-01T06:50:05;10.80;92.70
24618;DHT22;12762;51.730;5.356;2023-04-01T06:58:10;10.90;92.70
24618;DHT22;12762;51.730;5.356;2023-04-01T07:00:51;10.90;92.80
24618;DHT22;12762;51.730;5.356;2023-04-01T07:03:49;10.90;92.70
24618;DHT22;12762;51.730;5.356;2023-04-01T07:06:57;10.80;92.60
24618;DHT22;12762;51.730;5.356;2023-04-01T07:09:31;10.80;92.60
24618;DHT22;12762;51.730;5.356;2023-04-01T07:12:09;10.80;92.70
24618;DHT22;12762;51.730;5.356;2023-04-01T07:14:40;10.80;92.70
24618;DHT22;12762;51.730;5.356;2023-04-01T07:17:28;10.90;92.80
24618;DHT22;12762;51.730;5.356;2023-04-01T07:20:17;10.90;92.70
24618;DHT22;12762;51.730;5.356;2023-04-01T07:22:49;10.90;92.70
24618;DHT22;12762;51.730;5.356;2023-04-01T07:28:05;11.00;92.80
24618;DHT22;12762;51.730;5.356;2023-04-01T07:31:04;11.00;92.80
24618;DHT22;12762;51.730;5.356;2023-04-01T07:44:35;11.00;92.50
24618;DHT22;12762;51.730;5.356;2023-04-01T07:52:36;11.10;92.60
24618;DHT22;12762;51.730;5.356;2023-04-01T07:55:34;11.10;92.60
24618;DHT22;12762;51.730;5.356;2023-04-01T08:03:55;11.00;92.50
24618;DHT22;12762;51.730;5.356;2023-04-01T08:06:53;11.10;92.60
24618;DHT22;12762;51.730;5.356;2023-04-01T08:09:43;11.00;92.60
24618;DHT22;12762;51.730;5.356;2023-04-01T08:16:20;11.00;92.60
24618;DHT22;12762;51.730;5.356;2023-04-01T08:18:32;11.00;92.50
24618;DHT22;12762;51.730;5.356;2023-04-01T08:22:01;11.00;92.60
24618;DHT22;12762;51.730;5.356;2023-04-01T08:24:22;11.00;92.60
24618;DHT22;12762;51.730;5.356;2023-04-01T08:26:58;10.90;92.60
24618;DHT22;12762;51.730;5.356;2023-04-01T08:32:03;10.90;92.70
24618;DHT22;12762;51.730;5.356;2023-04-01T08:34:38;11.00;92.80
24618;DHT22;12762;51.730;5.356;2023-04-01T08:37:13;11.00;92.80
24618;DHT22;12762;51.730;5.356;2023-04-01T08:39:44;11.00;93.10
24618;DHT22;12762;51.730;5.356;2023-04-01T08:53:40;11.00;92.70
24618;DHT22;12762;51.730;5.356;2023-04-01T08:56:26;11.00;93.00
24618;DHT22;12762;51.730;5.356;2023-04-01T09:10:38;11.10;92.80
24618;DHT22;12762;51.730;5.356;2023-04-01T09:13:34;11.10;92.70
24618;DHT22;12762;51.730;5.356;2023-04-01T09:16:57;11.10;92.70
24618;DHT22;12762;51.730;5.356;2023-04-01T09:46:46;11.30;92.80
24618;DHT22;12762;51.730;5.356;2023-04-01T10:01:08;11.40;92.70
24618;DHT22;12762;51.730;5.356;2023-04-01T10:15:52;11.50;92.70
24618;DHT22;12762;51.730;5.356;2023-04-01T10:18:46;11.50;92.60
24618;DHT22;12762;51.730;5.356;2023-04-01T10:24:08;11.50;92.70
24618;DHT22;12762;51.730;5.356;2023-04-01T10:29:46;11.50;92.70
24618;DHT22;12762;51.730;5.356;2023-04-01T10:33:06;11.50;92.80
24618;DHT22;12762;51.730;5.356;2023-04-01T10:36:01;11.60;92.70
24618;DHT22;12762;51.730;5.356;2023-04-01T10:39:26;11.70;92.80
24618;DHT22;12762;51.730;5.356;2023-04-01T10:41:56;11.70;92.80
24618;DHT22;12762;51.730;5.356;2023-04-01T11:06:53;11.90;92.70
24618;DHT22;12762;51.730;5.356;2023-04-01T11:15:09;12.00;92.70
24618;DHT22;12762;51.730;5.356;2023-04-01T11:21:02;12.00;92.50
24618;DHT22;12762;51.730;5.356;2023-04-01T11:23:53;11.90;92.60
24618;DHT22;12762;51.730;5.356;2023-04-01T11:40:37;12.20;92.60
24618;DHT22;12762;51.730;5.356;2023-04-01T11:46:15;12.20;92.60
24618;DHT22;12762;51.730;5.356;2023-04-01T11:57:11;12.20;92.40
24618;DHT22;12762;51.730;5.356;2023-04-01T11:59:57;12.20;92.40
24618;DHT22;12762;51.730;5.356;2023-04-01T12:02:35;12.20;92.40
24618;DHT22;12762;51.730;5.356;2023-04-01T12:05:37;12.20;92.40
24618;DHT22;12762;51.730;5.356;2023-04-01T12:21:29;12.30;92.30
24618;DHT22;12762;51.730;5.356;2023-04-01T12:24:40;12.20;92.20
24618;DHT22;12762;51.730;5.356;2023-04-01T12:42:18;12.20;92.20
24618;DHT22;12762;51.730;5.356;2023-04-01T12:45:23;12.10;92.20
24618;DHT22;12762;51.730;5.356;2023-04-01T13:02:07;12.30;92.50
24618;DHT22;12762;51.730;5.356;2023-04-01T13:05:06;12.40;92.50
24618;DHT22;12762;51.730;5.356;2023-04-01T13:11:02;12.40;92.40
24618;DHT22;12762;51.730;5.356;2023-04-01T13:24:39;12.50;92.70
24618;DHT22;12762;51.730;5.356;2023-04-01T13:40:42;12.30;92.30
24618;DHT22;12762;51.730;5.356;2023-04-01T13:43:36;12.30;92.30
24618;DHT22;12762;51.730;5.356;2023-04-01T14:03:21;12.20;92.40
24618;DHT22;12762;51.730;5.356;2023-04-01T14:06:02;12.20;92.40
24618;DHT22;12762;51.730;5.356;2023-04-01T14:29:20;12.30;92.40
24618;DHT22;12762;51.730;5.356;2023-04-01T14:32:11;12.30;92.40
24618;DHT22;12762;51.730;5.356;2023-04-01T14:40:45;12.20;92.30
24618;DHT22;12762;51.730;5.356;2023-04-01T14:49:00;12.10;92.50
24618;DHT22;12762;51.730;5.356;2023-04-01T14:51:32;12.20;92.70
24618;DHT22;12762;51.730;5.356;2023-04-01T14:56:48;12.30;92.80
24618;DHT22;12762;51.730;5.356;2023-04-01T15:07:21;12.50;92.60
24618;DHT22;12762;51.730;5.356;2023-04-01T15:10:06;12.60;92.50
24618;DHT22;12762;51.730;5.356;2023-04-01T15:12:57;12.50;92.40
24618;DHT22;12762;51.730;5.356;2023-04-01T15:18:34;12.40;92.50
24618;DHT22;12762;51.730;5.356;2023-04-01T15:24:07;12.40;92.50
24618;DHT22;12762;51.730;5.356;2023-04-01T15:26:42;12.40;92.60
24618;DHT22;12762;51.730;5.356;2023-04-01T15:30:33;12.40;92.60
24618;DHT22;12762;51.730;5.356;2023-04-01T15:38:33;12.50;92.60
24618;DHT22;12762;51.730;5.356;2023-04-01T15:41:14;12.50;93.00
24618;DHT22;12762;51.730;5.356;2023-04-01T15:43:47;12.40;92.50
24618;DHT22;12762;51.730;5.356;2023-04-01T15:52:24;12.40;92.70
24618;DHT22;12762;51.730;5.356;2023-04-01T16:01:07;12.40;92.70
24618;DHT22;12762;51.730;5.356;2023-04-01T16:03:53;12.40;92.70
24618;DHT22;12762;51.730;5.356;2023-04-01T16:07:19;12.40;92.70
24618;DHT22;12762;51.730;5.356;2023-04-01T16:15:01;12.40;92.70
24618;DHT22;12762;51.730;5.356;2023-04-01T16:20:57;12.30;92.70
24618;DHT22;12762;51.730;5.356;2023-04-01T16:23:49;12.30;92.70
24618;DHT22;12762;51.730;5.356;2023-04-01T16:30:26;12.30;92.70
24618;DHT22;12762;51.730;5.356;2023-04-01T16:32:34;12.30;92.80
24618;DHT22;12762;51.730;5.356;2023-04-01T16:35:16;12.20;92.70
24618;DHT22;12762;51.730;5.356;2023-04-01T16:38:43;12.20;92.70
24618;DHT22;12762;51.730;5.356;2023-04-01T16:43:42;12.20;92.80
24618;DHT22;12762;51.730;5.356;2023-04-01T16:49:03;12.20;92.80
24618;DHT22;12762;51.730;5.356;2023-04-01T17:02:28;12.20;92.90
24618;DHT22;12762;51.730;5.356;2023-04-01T17:05:09;12.20;92.90
24618;DHT22;12762;51.730;5.356;2023-04-01T17:10:49;12.20;92.80
24618;DHT22;12762;51.730;5.356;2023-04-01T17:16:11;12.20;92.90
24618;DHT22;12762;51.730;5.356;2023-04-01T17:27:35;12.10;92.80
24618;DHT22;12762;51.730;5.356;2023-04-01T17:30:24;12.10;92.70
24618;DHT22;12762;51.730;5.356;2023-04-01T17:33:04;12.10;92.70
24618;DHT22;12762;51.730;5.356;2023-04-01T17:38:45;12.00;92.90
24618;DHT22;12762;51.730;5.356;2023-04-01T17:41:36;12.00;92.70
24618;DHT22;12762;51.730;5.356;2023-04-01T17:44:32;12.00;92.80
24618;DHT22;12762;51.730;5.356;2023-04-01T17:58:48;11.90;92.80
24618;DHT22;12762;51.730;5.356;2023-04-01T18:01:28;11.80;92.80
24618;DHT22;12762;51.730;5.356;2023-04-01T18:04:02;11.80;92.80
24618;DHT22;12762;51.730;5.356;2023-04-01T18:14:53;11.80;92.90
24618;DHT22;12762;51.730;5.356;2023-04-01T18:17:29;11.70;92.90
24618;DHT22;12762;51.730;5.356;2023-04-01T18:23:14;11.60;92.70
24618;DHT22;12762;51.730;5.356;2023-04-01T18:25:49;11.50;92.70
24618;DHT22;12762;51.730;5.356;2023-04-01T18:28:32;11.50;92.80
24618;DHT22;12762;51.730;5.356;2023-04-01T18:33:43;11.40;92.70
24618;DHT22;12762;51.730;5.356;2023-04-01T18:38:57;11.30;92.70
24618;DHT22;12762;51.730;5.356;2023-04-01T18:47:30;11.20;92.60
24618;DHT22;12762;51.730;5.356;2023-04-01T18:53:28;11.20;92.60
24618;DHT22;12762;51.730;5.356;2023-04-01T18:56:57;11.20;92.60
24618;DHT22;12762;51.730;5.356;2023-04-01T19:02:20;11.10;92.60
24618;DHT22;12762;51.730;5.356;2023-04-01T19:13:06;11.00;92.50
24618;DHT22;12762;51.730;5.356;2023-04-01T19:16:04;10.90;92.50
24618;DHT22;12762;51.730;5.356;2023-04-01T19:18:56;10.90;92.40
24618;DHT22;12762;51.730;5.356;2023-04-01T19:21:29;10.90;92.50
24618;DHT22;12762;51.730;5.356;2023-04-01T19:27:03;10.90;92.50
24618;DHT22;12762;51.730;5.356;2023-04-01T19:37:57;10.80;92.50
24618;DHT22;12762;51.730;5.356;2023-04-01T19:40:41;10.80;92.50
24618;DHT22;12762;51.730;5.356;2023-04-01T19:43:28;10.80;92.50
24618;DHT22;12762;51.730;5.356;2023-04-01T19:46:40;10.80;92.50
24618;DHT22;12762;51.730;5.356;2023-04-01T19:54:24;10.70;92.40
24618;DHT22;12762;51.730;5.356;2023-04-01T19:56:55;10.70;92.40
24618;DHT22;12762;51.730;5.356;2023-04-01T19:59:40;10.60;92.40
24618;DHT22;12762;51.730;5.356;2023-04-01T20:02:55;10.60;92.30
24618;DHT22;12762;51.730;5.356;2023-04-01T20:08:39;10.50;92.30
24618;DHT22;12762;51.730;5.356;2023-04-01T20:14:07;10.40;92.20
24618;DHT22;12762;51.730;5.356;2023-04-01T20:19:43;10.30;92.20
24618;DHT22;12762;51.730;5.356;2023-04-01T20:24:52;10.30;92.30
24618;DHT22;12762;51.730;5.356;2023-04-01T20:27:24;10.30;92.30
24618;DHT22;12762;51.730;5.356;2023-04-01T20:44:38;10.20;92.10
24618;DHT22;12762;51.730;5.356;2023-04-01T20:50:31;10.20;92.10
24618;DHT22;12762;51.730;5.356;2023-04-01T20:58:24;10.10;92.10
24618;DHT22;12762;51.730;5.356;2023-04-01T21:03:39;10.00;92.00
24618;DHT22;12762;51.730;5.356;2023-04-01T21:06:31;10.00;92.10
24618;DHT22;12762;51.730;5.356;2023-04-01T21:09:18;10.00;92.00
24618;DHT22;12762;51.730;5.356;2023-04-01T21:31:36;9.60;92.50
24618;DHT22;12762;51.730;5.356;2023-04-01T21:45:50;9.50;92.50
24618;DHT22;12762;51.730;5.356;2023-04-01T22:00:36;9.40;92.50
24618;DHT22;12762;51.730;5.356;2023-04-01T22:06:32;9.40;92.50
24618;DHT22;12762;51.730;5.356;2023-04-01T22:14:26;9.30;92.40
24618;DHT22;12762;51.730;5.356;2023-04-01T22:20:16;9.30;92.40
24618;DHT22;12762;51.730;5.356;2023-04-01T22:25:26;9.30;92.50
24618;DHT22;12762;51.730;5.356;2023-04-01T22:28:21;9.30;92.50
24618;DHT22;12762;51.730;5.356;2023-04-01T22:30:53;9.20;92.40
24618;DHT22;12762;51.730;5.356;2023-04-01T22:33:38;9.20;92.50
24618;DHT22;12762;51.730;5.356;2023-04-01T22:36:41;9.20;92.50
24618;DHT22;12762;51.730;5.356;2023-04-01T22:39:23;9.20;92.50
24618;DHT22;12762;51.730;5.356;2023-04-01T22:42:09;9.20;92.50
24618;DHT22;12762;51.730;5.356;2023-04-01T22:44:50;9.20;92.50
24618;DHT22;12762;51.730;5.356;2023-04-01T22:47:37;9.20;92.40
24618;DHT22;12762;51.730;5.356;2023-04-01T22:50:18;9.10;92.30
24618;DHT22;12762;51.730;5.356;2023-04-01T22:52:50;9.10;92.30
24618;DHT22;12762;51.730;5.356;2023-04-01T22:55:27;9.10;92.40
24618;DHT22;12762;51.730;5.356;2023-04-01T22:58:00;9.00;92.30
24618;DHT22;12762;51.730;5.356;2023-04-01T23:00:33;9.00;92.30
24618;DHT22;12762;51.730;5.356;2023-04-01T23:03:13;9.00;92.40
24618;DHT22;12762;51.730;5.356;2023-04-01T23:05:53;9.00;92.40
24618;DHT22;12762;51.730;5.356;2023-04-01T23:08:46;9.00;92.30
24618;DHT22;12762;51.730;5.356;2023-04-01T23:16:28;8.90;92.30
24618;DHT22;12762;51.730;5.356;2023-04-01T23:18:58;8.90;92.30
24618;DHT22;12762;51.730;5.356;2023-04-01T23:21:41;8.90;92.30
24618;DHT22;12762;51.730;5.356;2023-04-01T23:24:19;8.90;92.30
24618;DHT22;12762;51.730;5.356;2023-04-01T23:26:55;8.90;92.30
24618;DHT22;12762;51.730;5.356;2023-04-01T23:29:23;8.90;92.30
24618;DHT22;12762;51.730;5.356;2023-04-01T23:32:15;8.90;92.30
24618;DHT22;12762;51.730;5.356;2023-04-01T23:34:55;8.90;92.20
24618;DHT22;12762;51.730;5.356;2023-04-01T23:37:23;8.80;92.20
24618;DHT22;12762;51.730;5.356;2023-04-01T23:39:52;8.80;92.30
24618;DHT22;12762;51.730;5.356;2023-04-01T23:42:22;8.80;92.30
24618;DHT22;12762;51.730;5.356;2023-04-01T23:45:00;8.80;92.30
24618;DHT22;12762;51.730;5.356;2023-04-01T23:47:38;8.80;92.20
24618;DHT22;12762;51.730;5.356;2023-04-01T23:50:23;8.70;92.10
24618;DHT22;12762;51.730;5.356;2023-04-01T23:53:03;8.70;92.20
24618;DHT22;12762;51.730;5.356;2023-04-01T23:55:32;8.70;92.10
24618;DHT22;12762;51.730;5.356;2023-04-01T23:58:10;8.60;92.10
